createdAt,value
2023-01-28T00:02:26.639Z,9.73
2023-01-28T00:04:55.431Z,10.23
2023-01-28T00:07:25.029Z,10.97
2023-01-28T00:09:53.259Z,10.50
2023-01-28T00:12:21.496Z,11.20
2023-01-28T00:14:49.704Z,9.80
2023-01-28T00:17:17.990Z,10.80
2023-01-28T00:19:47.617Z,11.03
2023-01-28T00:22:15.867Z,10.40
2023-01-28T00:24:44.640Z,10.37
2023-01-28T00:27:13.767Z,10.67
2023-01-28T00:29:41.976Z,9.87
2023-01-28T00:32:10.329Z,11.73
2023-01-28T00:34:38.561Z,10.43
2023-01-28T00:37:10.989Z,10.53
2023-01-28T00:39:39.300Z,12.93
2023-01-28T00:42:08.440Z,10.57
2023-01-28T00:44:36.736Z,9.60
2023-01-28T00:47:05.074Z,10.03
2023-01-28T00:49:33.344Z,10.50
2023-01-28T00:52:01.637Z,12.30
2023-01-28T00:54:32.307Z,10.77
2023-01-28T00:57:01.785Z,10.60
2023-01-28T00:59:30.059Z,11.97
2023-01-28T01:02:12.107Z,12.30
2023-01-28T01:04:41.037Z,11.70
2023-01-28T01:07:09.619Z,11.43
2023-01-28T01:09:39.396Z,10.70
2023-01-28T01:12:08.986Z,11.40
2023-01-28T01:14:37.312Z,12.97
2023-01-28T01:17:06.008Z,12.37
2023-01-28T01:19:34.263Z,11.90
2023-01-28T01:22:02.685Z,11.67
2023-01-28T01:24:34.300Z,12.60
2023-01-28T01:27:05.938Z,11.23
2023-01-28T01:29:34.280Z,12.23
2023-01-28T01:32:02.599Z,10.27
2023-01-28T01:34:30.989Z,11.43
2023-01-28T01:36:59.414Z,11.50
2023-01-28T01:39:27.683Z,12.43
2023-01-28T01:41:55.990Z,10.93
2023-01-28T01:44:59.227Z,11.70
2023-01-28T01:47:34.332Z,12.70
2023-01-28T01:50:05.417Z,11.50
2023-01-28T01:52:36.081Z,12.27
2023-01-28T01:55:10.393Z,11.17
2023-01-28T01:57:39.133Z,11.63
2023-01-28T02:00:10.282Z,12.33
2023-01-28T02:02:49.756Z,12.80
2023-01-28T02:05:19.954Z,10.93
2023-01-28T02:07:51.198Z,13.10
2023-01-28T02:10:19.808Z,13.27
2023-01-28T02:12:52.691Z,11.67
2023-01-28T02:15:25.008Z,10.40
2023-01-28T02:17:53.851Z,11.20
2023-01-28T02:20:25.719Z,11.77
2023-01-28T02:23:12.910Z,11.77
2023-01-28T02:26:13.496Z,11.93
2023-01-28T02:28:49.648Z,11.37
2023-01-28T02:31:22.861Z,11.03
2023-01-28T02:33:56.607Z,12.17
2023-01-28T02:36:37.306Z,12.00
2023-01-28T02:39:17.024Z,14.13
2023-01-28T02:41:51.115Z,13.00
2023-01-28T02:44:21.860Z,11.73
2023-01-28T02:47:07.746Z,12.70
2023-01-28T02:49:40.723Z,12.63
2023-01-28T02:52:19.533Z,10.23
2023-01-28T02:54:56.939Z,11.03
2023-01-28T02:57:37.567Z,12.43
2023-01-28T03:00:13.886Z,12.90
2023-01-28T03:02:47.184Z,12.07
2023-01-28T03:05:22.421Z,11.63
2023-01-28T03:07:51.144Z,11.40
2023-01-28T03:10:21.446Z,12.37
2023-01-28T03:13:10.373Z,12.73
2023-01-28T03:16:02.124Z,11.20
2023-01-28T03:18:53.954Z,11.03
2023-01-28T03:21:44.997Z,12.70
2023-01-28T03:24:35.550Z,14.23
2023-01-28T03:27:30.086Z,11.70
2023-01-28T03:30:25.709Z,14.93
2023-01-28T03:33:14.248Z,14.90
2023-01-28T03:36:00.587Z,13.43
2023-01-28T03:38:33.989Z,13.20
2023-01-28T03:41:04.520Z,12.90
2023-01-28T03:43:33.609Z,13.90
2023-01-28T03:46:03.819Z,13.93
2023-01-28T03:48:33.638Z,12.70
2023-01-28T03:51:05.651Z,13.33
2023-01-28T03:53:34.335Z,13.17
2023-01-28T03:56:02.368Z,13.63
2023-01-28T03:58:46.060Z,14.80
2023-01-28T04:01:15.653Z,16.83
2023-01-28T04:03:45.479Z,15.87
2023-01-28T04:06:16.773Z,13.57
2023-01-28T04:09:00.120Z,14.70
2023-01-28T04:11:33.742Z,13.67
2023-01-28T04:14:04.435Z,14.53
2023-01-28T04:16:55.819Z,14.40
2023-01-28T04:19:28.175Z,15.53
2023-01-28T04:21:58.030Z,14.20
2023-01-28T04:24:26.956Z,14.07
2023-01-28T04:26:56.498Z,14.57
2023-01-28T04:29:25.076Z,13.27
2023-01-28T04:31:56.406Z,13.60
2023-01-28T04:34:42.161Z,13.27
2023-01-28T04:37:26.892Z,12.70
2023-01-28T04:40:11.368Z,12.90
2023-01-28T04:42:44.217Z,11.23
2023-01-28T04:45:22.753Z,13.33
2023-01-28T04:48:08.409Z,12.27
2023-01-28T04:51:00.721Z,13.57
2023-01-28T04:53:47.383Z,10.87
2023-01-28T04:56:27.208Z,11.17
2023-01-28T04:58:55.340Z,9.90
2023-01-28T05:01:25.067Z,10.60
2023-01-28T05:03:53.902Z,10.67
2023-01-28T05:06:27.381Z,10.60
2023-01-28T05:08:58.095Z,11.43
2023-01-28T05:11:44.666Z,12.70
2023-01-28T05:14:12.998Z,10.63
2023-01-28T05:17:03.715Z,9.47
2023-01-28T05:19:32.052Z,9.53
2023-01-28T05:22:02.144Z,10.63
2023-01-28T05:24:38.551Z,9.77
2023-01-28T05:27:07.587Z,10.07
2023-01-28T05:29:35.905Z,8.80
2023-01-28T05:32:04.265Z,9.70
2023-01-28T05:34:32.944Z,8.70
2023-01-28T05:37:07.353Z,9.43
2023-01-28T05:39:40.058Z,10.13
2023-01-28T05:42:08.815Z,10.20
2023-01-28T05:44:42.094Z,10.77
2023-01-28T05:47:17.256Z,9.80
2023-01-28T05:50:09.910Z,9.07
2023-01-28T05:52:58.216Z,9.63
2023-01-28T05:55:31.956Z,9.70
2023-01-28T05:58:00.133Z,9.03
2023-01-28T06:00:28.695Z,9.80
2023-01-28T06:02:57.091Z,12.23
2023-01-28T06:05:25.456Z,9.43
2023-01-28T06:07:53.785Z,10.07
2023-01-28T06:10:23.144Z,9.00
2023-01-28T06:12:51.229Z,12.17
2023-01-28T06:15:42.534Z,9.83
2023-01-28T06:18:20.858Z,9.47
2023-01-28T06:20:50.491Z,9.40
2023-01-28T06:23:19.069Z,10.07
2023-01-28T06:25:48.521Z,10.47
2023-01-28T06:28:17.314Z,12.43
2023-01-28T06:30:45.308Z,11.30
2023-01-28T06:33:13.316Z,11.47
2023-01-28T06:35:41.361Z,10.00
2023-01-28T06:38:09.487Z,10.13
2023-01-28T06:40:37.780Z,9.37
2023-01-28T06:43:07.644Z,10.47
2023-01-28T06:45:35.651Z,9.97
2023-01-28T06:48:04.236Z,10.60
2023-01-28T06:50:32.582Z,8.90
2023-01-28T06:53:00.624Z,8.33
2023-01-28T06:55:28.730Z,10.73
2023-01-28T06:57:56.785Z,8.63
2023-01-28T07:00:26.405Z,9.53
2023-01-28T07:02:57.091Z,9.90
2023-01-28T07:05:25.264Z,8.60
2023-01-28T07:07:53.467Z,8.40
2023-01-28T07:10:21.548Z,8.17
2023-01-28T07:12:49.619Z,8.57
2023-01-28T07:15:17.865Z,9.47
2023-01-28T07:17:47.497Z,8.70
2023-01-28T07:20:17.465Z,11.77
2023-01-28T07:22:46.661Z,10.20
2023-01-28T07:25:16.475Z,9.67
2023-01-28T07:27:48.980Z,11.17
2023-01-28T07:30:18.089Z,18.03
2023-01-28T07:32:48.428Z,12.40
2023-01-28T07:35:16.615Z,8.93
2023-01-28T07:37:51.630Z,10.27
2023-01-28T07:40:19.896Z,8.63
2023-01-28T07:42:48.455Z,10.90
2023-01-28T07:45:17.108Z,10.17
2023-01-28T07:47:45.691Z,9.97
2023-01-28T07:50:17.086Z,9.33
2023-01-28T07:52:45.866Z,9.87
2023-01-28T07:55:15.446Z,10.53
2023-01-28T07:57:51.003Z,9.43
2023-01-28T08:00:20.294Z,11.33
2023-01-28T08:02:49.293Z,9.77
2023-01-28T08:05:21.374Z,9.43
2023-01-28T08:07:50.183Z,10.10
2023-01-28T08:10:19.421Z,10.73
2023-01-28T08:12:54.310Z,10.13
2023-01-28T08:15:22.847Z,10.53
2023-01-28T08:17:50.960Z,10.47
2023-01-28T08:20:20.534Z,10.23
2023-01-28T08:22:48.735Z,10.17
2023-01-28T08:25:17.087Z,13.33
2023-01-28T08:27:45.124Z,11.43
2023-01-28T08:30:14.058Z,11.30
2023-01-28T08:32:42.481Z,10.83
2023-01-28T08:35:10.803Z,11.17
2023-01-28T08:37:40.618Z,11.47
2023-01-28T08:40:10.202Z,11.30
2023-01-28T08:42:38.278Z,10.47
2023-01-28T08:45:07.620Z,11.73
2023-01-28T08:47:35.699Z,11.27
2023-01-28T08:50:03.852Z,12.60
2023-01-28T08:52:31.920Z,11.63
2023-01-28T08:55:01.290Z,10.90
2023-01-28T08:57:29.290Z,11.30
2023-01-28T08:59:57.314Z,12.47
2023-01-28T09:02:31.638Z,11.30
2023-01-28T09:05:00.653Z,12.43
2023-01-28T09:07:28.855Z,12.13
2023-01-28T09:09:57.009Z,11.20
2023-01-28T09:12:27.214Z,12.03
2023-01-28T09:14:55.489Z,11.93
2023-01-28T09:17:23.596Z,11.63
2023-01-28T09:19:51.731Z,12.70
2023-01-28T09:22:20.034Z,11.97
2023-01-28T09:24:48.463Z,12.70
2023-01-28T09:27:16.863Z,11.60
2023-01-28T09:29:46.411Z,12.67
2023-01-28T09:32:14.494Z,11.50
2023-01-28T09:34:44.352Z,11.60
2023-01-28T09:37:12.605Z,13.17
2023-01-28T09:39:43.221Z,12.00
2023-01-28T09:42:32.424Z,11.10
2023-01-28T09:45:10.592Z,12.90
2023-01-28T09:47:42.358Z,12.50
2023-01-28T09:50:15.990Z,11.33
2023-01-28T09:52:45.036Z,11.20
2023-01-28T09:55:19.876Z,11.40
2023-01-28T09:57:53.162Z,11.03
2023-01-28T10:00:24.815Z,11.00
2023-01-28T10:03:08.813Z,11.73
2023-01-28T10:05:46.382Z,14.13
2023-01-28T10:08:28.253Z,12.83
2023-01-28T10:11:04.878Z,11.93
2023-01-28T10:13:43.674Z,12.53
2023-01-28T10:16:25.087Z,11.43
2023-01-28T10:18:57.366Z,11.17
2023-01-28T10:21:32.422Z,11.50
2023-01-28T10:24:07.387Z,12.30
2023-01-28T10:26:39.616Z,12.13
2023-01-28T10:29:15.575Z,12.30
2023-01-28T10:31:53.647Z,11.53
2023-01-28T10:34:22.872Z,12.33
2023-01-28T10:36:52.891Z,12.80
2023-01-28T10:39:24.758Z,12.30
2023-01-28T10:41:58.341Z,13.00
2023-01-28T10:44:33.582Z,13.30
2023-01-28T10:47:05.870Z,12.23
2023-01-28T10:49:42.534Z,14.03
2023-01-28T10:52:14.830Z,12.47
2023-01-28T10:54:43.289Z,11.87
2023-01-28T10:57:14.072Z,13.60
2023-01-28T10:59:43.649Z,13.90
2023-01-28T11:02:29.525Z,13.50
2023-01-28T11:05:08.271Z,11.93
2023-01-28T11:07:36.852Z,12.73
2023-01-28T11:10:23.642Z,13.90
2023-01-28T11:12:57.323Z,13.27
2023-01-28T11:15:25.859Z,12.17
2023-01-28T11:17:59.572Z,13.70
2023-01-28T11:20:31.234Z,12.07
2023-01-28T11:22:59.742Z,12.33
2023-01-28T11:25:32.026Z,15.13
2023-01-28T11:28:02.089Z,14.60
2023-01-28T11:30:34.004Z,13.67
2023-01-28T11:33:15.989Z,14.10
2023-01-28T11:35:53.343Z,14.97
2023-01-28T11:38:23.247Z,12.30
2023-01-28T11:40:52.874Z,12.70
2023-01-28T11:43:23.827Z,12.53
2023-01-28T11:45:59.531Z,12.37
2023-01-28T11:48:38.509Z,12.93
2023-01-28T11:51:19.719Z,11.80
2023-01-28T11:54:10.836Z,11.83
2023-01-28T11:56:56.051Z,11.23
2023-01-28T11:59:46.887Z,12.50
2023-01-28T12:02:33.422Z,14.67
2023-01-28T12:05:16.563Z,11.47
2023-01-28T12:07:54.081Z,12.47
2023-01-28T12:10:30.322Z,12.00
2023-01-28T12:13:25.336Z,12.17
2023-01-28T12:16:23.667Z,11.47
2023-01-28T12:19:08.022Z,12.77
2023-01-28T12:22:02.091Z,12.03
2023-01-28T12:24:43.395Z,11.87
2023-01-28T12:27:21.429Z,12.03
2023-01-28T12:29:58.814Z,12.10
2023-01-28T12:32:40.789Z,13.47
2023-01-28T12:35:34.421Z,11.67
2023-01-28T12:38:14.643Z,11.83
2023-01-28T12:40:56.257Z,12.00
2023-01-28T12:43:34.140Z,12.67
2023-01-28T12:46:06.180Z,12.47
2023-01-28T12:48:38.800Z,12.13
2023-01-28T12:51:13.797Z,11.33
2023-01-28T12:53:48.997Z,12.93
2023-01-28T12:56:19.657Z,11.90
2023-01-28T12:58:55.530Z,12.70
2023-01-28T13:01:30.832Z,11.10
2023-01-28T13:04:04.991Z,13.40
2023-01-28T13:06:39.196Z,12.37
2023-01-28T13:09:17.808Z,13.07
2023-01-28T13:11:47.814Z,12.80
2023-01-28T13:14:16.721Z,11.83
2023-01-28T13:16:44.949Z,11.87
2023-01-28T13:19:25.455Z,12.70
2023-01-28T13:21:54.126Z,13.60
2023-01-28T13:24:32.768Z,13.50
2023-01-28T13:27:13.869Z,11.67
2023-01-28T13:29:42.126Z,13.67
2023-01-28T13:32:34.977Z,11.70
2023-01-28T13:35:07.024Z,12.60
2023-01-28T13:37:38.978Z,12.57
2023-01-28T13:40:25.586Z,12.30
2023-01-28T13:43:02.106Z,11.60
2023-01-28T13:45:30.868Z,11.87
2023-01-28T13:48:06.358Z,10.87
2023-01-28T13:50:40.761Z,12.07
2023-01-28T13:53:22.808Z,11.57
2023-01-28T13:55:56.386Z,12.97
2023-01-28T13:58:58.268Z,11.53
2023-01-28T14:01:51.218Z,10.87
2023-01-28T14:05:01.664Z,13.53
2023-01-28T14:07:44.746Z,14.53
2023-01-28T14:10:35.944Z,11.30
2023-01-28T14:13:29.244Z,10.17
2023-01-28T14:16:20.567Z,12.30
2023-01-28T14:18:49.678Z,11.67
2023-01-28T14:21:20.994Z,13.23
2023-01-28T14:23:51.004Z,12.33
2023-01-28T14:26:33.454Z,11.33
2023-01-28T14:29:16.150Z,11.83
2023-01-28T14:31:44.346Z,10.97
2023-01-28T14:34:21.000Z,13.50
2023-01-28T14:36:50.631Z,10.87
2023-01-28T14:39:21.349Z,11.07
2023-01-28T14:41:51.811Z,12.00
2023-01-28T14:44:29.600Z,10.67
2023-01-28T14:47:14.336Z,12.20
2023-01-28T14:49:56.777Z,10.30
2023-01-28T14:53:01.614Z,11.00
2023-01-28T14:55:37.719Z,12.10
2023-01-28T14:58:10.170Z,9.63
2023-01-28T15:00:39.799Z,10.67
2023-01-28T15:03:26.629Z,9.80
2023-01-28T15:06:06.853Z,11.77
2023-01-28T15:08:35.840Z,10.63
2023-01-28T15:11:06.668Z,12.07
2023-01-28T15:13:39.711Z,12.30
2023-01-28T15:16:16.932Z,11.30
2023-01-28T15:18:46.525Z,10.47
2023-01-28T15:21:16.402Z,12.53
2023-01-28T15:23:44.948Z,11.37
2023-01-28T15:26:19.146Z,12.40
2023-01-28T15:28:48.583Z,10.87
2023-01-28T15:31:26.227Z,10.93
2023-01-28T15:34:02.180Z,12.73
2023-01-28T15:36:31.433Z,11.63
2023-01-28T15:38:59.811Z,10.93
2023-01-28T15:41:32.044Z,11.40
2023-01-28T15:44:00.346Z,11.80
2023-01-28T15:46:29.687Z,10.87
2023-01-28T15:49:01.535Z,15.13
2023-01-28T15:51:32.057Z,12.37
2023-01-28T15:54:05.042Z,11.70
2023-01-28T15:56:33.469Z,12.20
2023-01-28T15:59:18.765Z,11.93
2023-01-28T16:01:48.499Z,12.33
2023-01-28T16:04:26.998Z,12.97
2023-01-28T16:06:56.414Z,16.40
2023-01-28T16:09:29.078Z,11.87
2023-01-28T16:12:03.719Z,12.77
2023-01-28T16:14:35.755Z,12.13
2023-01-28T16:17:05.678Z,13.47
2023-01-28T16:19:39.686Z,13.07
2023-01-28T16:22:09.066Z,13.27
2023-01-28T16:24:37.639Z,13.37
2023-01-28T16:27:08.167Z,13.70
2023-01-28T16:29:36.898Z,14.80
2023-01-28T16:32:30.387Z,13.40
2023-01-28T16:34:58.484Z,13.53
2023-01-28T16:40:01.569Z,14.20
2023-01-28T16:42:32.180Z,16.17
2023-01-28T16:45:00.477Z,15.90
2023-01-28T16:47:30.132Z,14.73
2023-01-28T16:49:58.517Z,17.90
2023-01-28T16:52:26.580Z,16.73
2023-01-28T16:54:54.620Z,15.33
2023-01-28T16:57:23.450Z,13.53
2023-01-28T16:59:51.744Z,15.77
2023-01-28T17:02:20.055Z,15.63
2023-01-28T17:04:49.783Z,16.43
2023-01-28T17:07:18.108Z,18.07
2023-01-28T17:09:46.252Z,16.33
2023-01-28T17:12:14.179Z,17.47
2023-01-28T17:14:42.090Z,15.37
2023-01-28T17:17:10.133Z,15.30
2023-01-28T17:19:38.269Z,15.90
2023-01-28T17:22:07.609Z,17.27
2023-01-28T17:24:35.661Z,17.63
2023-01-28T17:27:04.017Z,16.87
2023-01-28T17:29:32.692Z,17.40
2023-01-28T17:32:00.748Z,17.00
2023-01-28T17:34:29.092Z,16.47
2023-01-28T17:36:57.104Z,16.63
2023-01-28T17:39:26.630Z,17.30
2023-01-28T17:41:55.087Z,20.43
2023-01-28T17:44:23.106Z,20.17
2023-01-28T17:46:51.080Z,18.60
2023-01-28T17:49:19.052Z,17.67
2023-01-28T17:51:47.059Z,19.67
2023-01-28T17:54:15.691Z,17.17
2023-01-28T17:56:45.229Z,18.90
2023-01-28T17:59:16.767Z,17.20
2023-01-28T18:01:47.441Z,17.90
2023-01-28T18:04:15.536Z,19.30
2023-01-28T18:06:43.569Z,18.50
2023-01-28T18:09:12.538Z,18.17
2023-01-28T18:11:40.582Z,17.33
2023-01-28T18:14:09.995Z,17.63
2023-01-28T18:16:38.020Z,21.53
2023-01-28T18:19:08.873Z,22.47
2023-01-28T18:21:52.182Z,19.90
2023-01-28T18:24:21.322Z,21.17
2023-01-28T18:26:49.439Z,23.03
2023-01-28T18:29:20.783Z,19.80
2023-01-28T18:31:49.644Z,18.47
2023-01-28T18:34:18.349Z,20.10
2023-01-28T18:36:46.825Z,22.13
2023-01-28T18:39:15.529Z,20.23
2023-01-28T18:41:43.904Z,19.40
2023-01-28T18:44:13.564Z,20.30
2023-01-28T18:46:43.369Z,24.90
2023-01-28T18:49:11.678Z,44.77
2023-01-28T18:51:39.884Z,22.60
2023-01-28T18:54:12.007Z,24.23
2023-01-28T18:56:41.277Z,26.03
2023-01-28T18:59:13.010Z,34.00
2023-01-28T19:01:43.887Z,27.67
2023-01-28T19:04:12.085Z,39.83
2023-01-28T19:06:40.191Z,41.20
2023-01-28T19:09:09.553Z,42.33
2023-01-28T19:11:38.454Z,35.47
2023-01-28T19:14:06.483Z,37.73
2023-01-28T19:16:37.073Z,30.10
2023-01-28T19:19:06.832Z,32.37
2023-01-28T19:21:35.211Z,33.00
2023-01-28T19:24:06.435Z,31.47
2023-01-28T19:26:36.091Z,29.83
2023-01-28T19:29:04.160Z,29.97
2023-01-28T19:31:32.486Z,27.97
2023-01-28T19:34:01.500Z,30.83
2023-01-28T19:36:33.736Z,28.13
2023-01-28T19:39:03.295Z,34.43
2023-01-28T19:41:31.777Z,29.67
2023-01-28T19:44:00.170Z,30.43
2023-01-28T19:46:28.512Z,30.23
2023-01-28T19:48:56.594Z,30.20
2023-01-28T19:51:24.911Z,34.10
2023-01-28T19:53:55.935Z,34.50
2023-01-28T19:56:25.892Z,35.00
2023-01-28T19:58:55.377Z,37.83
2023-01-28T20:01:27.289Z,40.07
2023-01-28T20:03:59.733Z,45.07
2023-01-28T20:06:29.332Z,73.23
2023-01-28T20:09:00.998Z,47.47
2023-01-28T20:11:29.132Z,74.20
2023-01-28T20:13:57.488Z,47.37
2023-01-28T20:16:26.828Z,43.83
2023-01-28T20:18:56.547Z,52.93
2023-01-28T20:21:25.027Z,50.60
2023-01-28T20:23:54.311Z,55.90
2023-01-28T20:26:26.320Z,51.77
2023-01-28T20:28:54.389Z,48.57
2023-01-28T20:31:22.505Z,43.70
2023-01-28T20:33:50.696Z,46.73
2023-01-28T20:36:18.732Z,39.70
2023-01-28T20:38:48.934Z,41.60
2023-01-28T20:41:20.090Z,44.30
2023-01-28T20:43:51.070Z,41.80
2023-01-28T20:46:20.480Z,44.47
2023-01-28T20:48:49.347Z,44.17
2023-01-28T20:51:19.510Z,44.33
2023-01-28T20:53:48.717Z,45.33
2023-01-28T20:56:19.430Z,42.70
2023-01-28T20:58:50.004Z,43.10
2023-01-28T21:01:19.298Z,44.90
2023-01-28T21:03:47.425Z,47.43
2023-01-28T21:06:16.089Z,48.23
2023-01-28T21:08:45.125Z,49.37
2023-01-28T21:11:14.108Z,48.13
2023-01-28T21:13:42.545Z,53.40
2023-01-28T21:16:11.965Z,53.60
2023-01-28T21:18:40.150Z,49.80
2023-01-28T21:21:11.736Z,49.43
2023-01-28T21:23:39.959Z,46.97
2023-01-28T21:26:08.232Z,44.23
2023-01-28T21:28:36.409Z,48.17
2023-01-28T21:31:09.227Z,42.87
2023-01-28T21:33:39.047Z,41.10
2023-01-28T21:36:12.020Z,42.43
2023-01-28T21:41:26.255Z,41.70
2023-01-28T21:43:57.194Z,40.13
2023-01-28T21:46:28.425Z,35.00
2023-01-28T21:48:59.505Z,38.53
2023-01-28T21:51:39.284Z,41.13
2023-01-28T21:54:10.803Z,44.57
2023-01-28T21:56:39.188Z,38.53
2023-01-28T21:59:24.838Z,41.00
2023-01-28T22:01:52.919Z,38.10
2023-01-28T22:04:23.064Z,42.93
2023-01-28T22:06:51.021Z,37.43
2023-01-28T22:09:19.268Z,36.47
2023-01-28T22:11:47.549Z,39.03
2023-01-28T22:14:16.101Z,38.50
2023-01-28T22:16:44.188Z,41.13
2023-01-28T22:19:12.752Z,46.73
2023-01-28T22:21:44.145Z,43.73
2023-01-28T22:24:14.045Z,50.03
2023-01-28T22:26:43.266Z,51.87
2023-01-28T22:29:11.712Z,49.83
2023-01-28T22:31:40.646Z,46.33
2023-01-28T22:34:09.030Z,42.73
2023-01-28T22:36:37.304Z,41.90
2023-01-28T22:39:08.485Z,38.07
2023-01-28T22:41:36.515Z,41.23
2023-01-28T22:44:04.971Z,40.17
2023-01-28T22:46:34.168Z,41.13
2023-01-28T22:49:03.302Z,38.83
2023-01-28T22:51:32.818Z,35.80
2023-01-28T22:54:01.160Z,36.10
2023-01-28T22:56:31.706Z,35.57
2023-01-28T22:59:02.595Z,35.47
2023-01-28T23:01:31.286Z,36.10
2023-01-28T23:03:59.748Z,37.23
2023-01-28T23:06:30.019Z,33.00
2023-01-28T23:08:58.233Z,34.63
2023-01-28T23:11:27.648Z,38.33
2023-01-28T23:14:17.073Z,37.20
2023-01-28T23:17:03.440Z,36.83
2023-01-28T23:19:49.627Z,33.87
2023-01-28T23:22:40.827Z,34.83
2023-01-28T23:25:10.179Z,35.03
2023-01-28T23:27:38.199Z,37.53
2023-01-28T23:30:10.027Z,35.50
2023-01-28T23:32:39.979Z,38.23
2023-01-28T23:35:09.008Z,37.10
2023-01-28T23:37:37.137Z,37.53
2023-01-28T23:40:06.263Z,36.20
2023-01-28T23:42:34.543Z,36.17
2023-01-28T23:45:02.879Z,39.67
2023-01-28T23:47:32.384Z,35.47
2023-01-28T23:50:00.919Z,37.10
2023-01-28T23:52:29.025Z,37.97
2023-01-28T23:54:57.164Z,37.90
2023-01-28T23:57:25.809Z,38.47
2023-01-28T23:59:53.943Z,37.10
